sensor_id;sensor_type;location;lat;lon;timestamp;temperature;humidity
44447;DHT22;30152;52.066;5.358;2023-09-19T06:25:52;13.30;99.90
44447;DHT22;30152;52.066;5.358;2023-09-19T06:28:18;13.30;99.90
44447;DHT22;30152;52.066;5.358;2023-09-19T06:30:49;13.20;99.90
44447;DHT22;30152;52.066;5.358;2023-09-19T06:33:15;13.70;99.90
44447;DHT22;30152;52.066;5.358;2023-09-19T06:35:41;13.50;99.90
44447;DHT22;30152;52.066;5.358;2023-09-19T06:40:36;13.50;99.90
44447;DHT22;30152;52.066;5.358;2023-09-19T06:45:29;14.40;99.90
44447;DHT22;30152;52.066;5.358;2023-09-19T06:47:54;13.90;99.90
44447;DHT22;30152;52.066;5.358;2023-09-19T06:50:23;13.70;99.90
44447;DHT22;30152;52.066;5.358;2023-09-19T06:52:51;13.60;99.90
44447;DHT22;30152;52.066;5.358;2023-09-19T06:55:20;13.90;99.90
44447;DHT22;30152;52.066;5.358;2023-09-19T06:57:47;13.70;99.90
44447;DHT22;30152;52.066;5.358;2023-09-19T07:00:13;13.80;99.90
44447;DHT22;30152;52.066;5.358;2023-09-19T07:02:44;14.20;99.90
44447;DHT22;30152;52.066;5.358;2023-09-19T07:05:09;13.70;99.90
44447;DHT22;30152;52.066;5.358;2023-09-19T07:07:35;14.00;99.90
44447;DHT22;30152;52.066;5.358;2023-09-19T07:10:04;14.20;99.90
44447;DHT22;30152;52.066;5.358;2023-09-19T07:12:36;15.00;99.90
44447;DHT22;30152;52.066;5.358;2023-09-19T07:15:02;14.60;99.90
44447;DHT22;30152;52.066;5.358;2023-09-19T07:17:27;14.50;99.90
44447;DHT22;30152;52.066;5.358;2023-09-19T07:19:54;14.40;99.90
44447;DHT22;30152;52.066;5.358;2023-09-19T07:27:14;14.80;99.90
44447;DHT22;30152;52.066;5.358;2023-09-19T07:32:05;14.50;99.90
44447;DHT22;30152;52.066;5.358;2023-09-19T07:41:49;14.70;99.90
44447;DHT22;30152;52.066;5.358;2023-09-19T07:44:15;15.10;99.90
44447;DHT22;30152;52.066;5.358;2023-09-19T07:51:33;14.90;99.90
44447;DHT22;30152;52.066;5.358;2023-09-19T07:54:02;15.10;99.90
44447;DHT22;30152;52.066;5.358;2023-09-19T07:56:28;15.60;99.90
44447;DHT22;30152;52.066;5.358;2023-09-19T08:03:49;14.90;99.90
44447;DHT22;30152;52.066;5.358;2023-09-19T08:13:38;16.10;99.90
44447;DHT22;30152;52.066;5.358;2023-09-19T08:16:09;15.90;99.90
44447;DHT22;30152;52.066;5.358;2023-09-19T08:23:26;15.50;99.90
44447;DHT22;30152;52.066;5.358;2023-09-19T08:25:56;15.90;99.90
44447;DHT22;30152;52.066;5.358;2023-09-19T08:28:22;16.70;99.90
44447;DHT22;30152;52.066;5.358;2023-09-19T08:33:17;15.50;99.90
44447;DHT22;30152;52.066;5.358;2023-09-19T08:35:42;15.90;99.90
44447;DHT22;30152;52.066;5.358;2023-09-19T08:38:09;15.60;99.90
44447;DHT22;30152;52.066;5.358;2023-09-19T08:40:38;15.90;99.90
44447;DHT22;30152;52.066;5.358;2023-09-19T08:48:24;15.60;99.90
44447;DHT22;30152;52.066;5.358;2023-09-19T08:50:56;15.90;99.90
44447;DHT22;30152;52.066;5.358;2023-09-19T08:56:36;15.70;99.90
44447;DHT22;30152;52.066;5.358;2023-09-19T09:01:33;16.00;99.90
44447;DHT22;30152;52.066;5.358;2023-09-19T09:06:26;16.40;99.90
44447;DHT22;30152;52.066;5.358;2023-09-19T09:08:53;16.60;99.90
44447;DHT22;30152;52.066;5.358;2023-09-19T09:11:19;16.40;99.90
44447;DHT22;30152;52.066;5.358;2023-09-19T09:16:12;16.30;99.90
44447;DHT22;30152;52.066;5.358;2023-09-19T09:18:39;16.30;99.90
44447;DHT22;30152;52.066;5.358;2023-09-19T09:23:31;16.00;99.90
44447;DHT22;30152;52.066;5.358;2023-09-19T09:25:58;16.50;99.90
44447;DHT22;30152;52.066;5.358;2023-09-19T09:33:24;16.60;99.90
44447;DHT22;30152;52.066;5.358;2023-09-19T09:35:53;16.90;99.90
44447;DHT22;30152;52.066;5.358;2023-09-19T09:38:23;16.80;99.90
44447;DHT22;30152;52.066;5.358;2023-09-19T09:40:58;16.90;99.90
44447;DHT22;30152;52.066;5.358;2023-09-19T09:43:34;17.10;99.90
44447;DHT22;30152;52.066;5.358;2023-09-19T09:48:44;17.30;99.90
44447;DHT22;30152;52.066;5.358;2023-09-19T09:51:29;17.40;99.90
44447;DHT22;30152;52.066;5.358;2023-09-19T09:54:10;17.30;99.90
44447;DHT22;30152;52.066;5.358;2023-09-19T09:56:55;17.40;99.90
44447;DHT22;30152;52.066;5.358;2023-09-19T09:59:44;18.00;99.90
44447;DHT22;30152;52.066;5.358;2023-09-19T10:07:30;17.40;99.90
44447;DHT22;30152;52.066;5.358;2023-09-19T10:10:03;17.30;99.90
44447;DHT22;30152;52.066;5.358;2023-09-19T10:12:47;17.30;99.90
44447;DHT22;30152;52.066;5.358;2023-09-19T10:15:15;17.50;99.90
44447;DHT22;30152;52.066;5.358;2023-09-19T10:17:44;17.20;99.90
44447;DHT22;30152;52.066;5.358;2023-09-19T10:20:18;17.70;99.90
44447;DHT22;30152;52.066;5.358;2023-09-19T10:23:10;17.30;99.90
44447;DHT22;30152;52.066;5.358;2023-09-19T10:25:43;17.30;99.90
44447;DHT22;30152;52.066;5.358;2023-09-19T10:28:12;18.20;99.90
44447;DHT22;30152;52.066;5.358;2023-09-19T10:30:42;17.80;99.90
44447;DHT22;30152;52.066;5.358;2023-09-19T10:33:12;17.00;99.90
44447;DHT22;30152;52.066;5.358;2023-09-19T10:35:40;17.50;99.90
44447;DHT22;30152;52.066;5.358;2023-09-19T10:40:35;17.70;99.90
44447;DHT22;30152;52.066;5.358;2023-09-19T10:43:05;17.70;99.90
44447;DHT22;30152;52.066;5.358;2023-09-19T10:45:35;17.80;99.90
44447;DHT22;30152;52.066;5.358;2023-09-19T10:48:01;17.70;99.90
44447;DHT22;30152;52.066;5.358;2023-09-19T10:50:44;17.80;99.90
44447;DHT22;30152;52.066;5.358;2023-09-19T10:53:12;17.70;99.90
44447;DHT22;30152;52.066;5.358;2023-09-19T10:55:39;17.70;99.90
44447;DHT22;30152;52.066;5.358;2023-09-19T10:58:08;18.10;99.90
44447;DHT22;30152;52.066;5.358;2023-09-19T11:00:56;17.70;99.90
44447;DHT22;30152;52.066;5.358;2023-09-19T11:03:23;17.90;99.90
44447;DHT22;30152;52.066;5.358;2023-09-19T11:06:06;18.00;99.90
44447;DHT22;30152;52.066;5.358;2023-09-19T11:09:00;18.10;99.90
44447;DHT22;30152;52.066;5.358;2023-09-19T11:11:43;17.80;99.90
44447;DHT22;30152;52.066;5.358;2023-09-19T11:30:37;18.60;99.90
44447;DHT22;30152;52.066;5.358;2023-09-19T11:33:22;18.50;99.90
44447;DHT22;30152;52.066;5.358;2023-09-19T11:36:09;18.50;99.90
44447;DHT22;30152;52.066;5.358;2023-09-19T11:48:48;18.50;99.90
44447;DHT22;30152;52.066;5.358;2023-09-19T11:51:37;18.50;99.90
44447;DHT22;30152;52.066;5.358;2023-09-19T11:56:31;19.20;99.90
44447;DHT22;30152;52.066;5.358;2023-09-19T11:58:57;18.80;99.90
44447;DHT22;30152;52.066;5.358;2023-09-19T12:01:32;18.60;99.90
44447;DHT22;30152;52.066;5.358;2023-09-19T12:04:01;18.50;99.90
44447;DHT22;30152;52.066;5.358;2023-09-19T12:06:29;18.50;99.90
44447;DHT22;30152;52.066;5.358;2023-09-19T12:08:55;18.50;99.90
44447;DHT22;30152;52.066;5.358;2023-09-19T12:11:23;18.50;99.90
44447;DHT22;30152;52.066;5.358;2023-09-19T12:16:19;18.50;99.90
44447;DHT22;30152;52.066;5.358;2023-09-19T12:18:48;18.20;99.90
44447;DHT22;30152;52.066;5.358;2023-09-19T12:21:31;18.60;99.90
44447;DHT22;30152;52.066;5.358;2023-09-19T12:24:06;19.10;99.90
44447;DHT22;30152;52.066;5.358;2023-09-19T12:29:10;18.70;99.90
44447;DHT22;30152;52.066;5.358;2023-09-19T12:34:02;18.70;99.90
44447;DHT22;30152;52.066;5.358;2023-09-19T12:38:59;18.00;99.90
44447;DHT22;30152;52.066;5.358;2023-09-19T12:41:28;18.30;99.90
44447;DHT22;30152;52.066;5.358;2023-09-19T12:43:54;18.50;99.90
44447;DHT22;30152;52.066;5.358;2023-09-19T12:46:23;17.80;99.90
44447;DHT22;30152;52.066;5.358;2023-09-19T12:49:19;18.20;99.90
44447;DHT22;30152;52.066;5.358;2023-09-19T12:51:46;18.20;99.90
44447;DHT22;30152;52.066;5.358;2023-09-19T12:54:16;18.20;99.90
44447;DHT22;30152;52.066;5.358;2023-09-19T12:56:45;18.70;99.90
44447;DHT22;30152;52.066;5.358;2023-09-19T12:59:14;18.40;99.90
44447;DHT22;30152;52.066;5.358;2023-09-19T13:01:43;18.30;99.90
44447;DHT22;30152;52.066;5.358;2023-09-19T13:04:21;18.30;99.90
44447;DHT22;30152;52.066;5.358;2023-09-19T13:06:55;18.60;99.90
44447;DHT22;30152;52.066;5.358;2023-09-19T13:09:26;18.60;99.90
44447;DHT22;30152;52.066;5.358;2023-09-19T13:12:04;18.60;99.90
44447;DHT22;30152;52.066;5.358;2023-09-19T13:14:32;18.70;99.90
44447;DHT22;30152;52.066;5.358;2023-09-19T13:17:03;17.90;99.90
44447;DHT22;30152;52.066;5.358;2023-09-19T13:22:40;17.90;99.90
44447;DHT22;30152;52.066;5.358;2023-09-19T13:25:26;18.40;99.90
44447;DHT22;30152;52.066;5.358;2023-09-19T13:27:56;17.70;99.90
44447;DHT22;30152;52.066;5.358;2023-09-19T13:30:23;18.20;99.90
44447;DHT22;30152;52.066;5.358;2023-09-19T13:32:50;18.90;99.90
44447;DHT22;30152;52.066;5.358;2023-09-19T13:35:17;18.70;99.90
44447;DHT22;30152;52.066;5.358;2023-09-19T13:37:43;18.80;99.90
44447;DHT22;30152;52.066;5.358;2023-09-19T13:40:13;18.30;99.90
44447;DHT22;30152;52.066;5.358;2023-09-19T13:42:40;19.40;99.90
44447;DHT22;30152;52.066;5.358;2023-09-19T13:45:06;18.80;99.90
44447;DHT22;30152;52.066;5.358;2023-09-19T13:47:33;18.50;99.90
44447;DHT22;30152;52.066;5.358;2023-09-19T13:52:26;18.90;99.90
44447;DHT22;30152;52.066;5.358;2023-09-19T13:54:54;18.40;99.90
44447;DHT22;30152;52.066;5.358;2023-09-19T13:59:47;18.20;99.90
44447;DHT22;30152;52.066;5.358;2023-09-19T14:04:40;18.90;99.90
44447;DHT22;30152;52.066;5.358;2023-09-19T14:07:06;18.40;99.90
44447;DHT22;30152;52.066;5.358;2023-09-19T14:09:32;18.50;99.90
44447;DHT22;30152;52.066;5.358;2023-09-19T14:11:59;19.40;99.90
44447;DHT22;30152;52.066;5.358;2023-09-19T14:14:24;18.70;99.90
44447;DHT22;30152;52.066;5.358;2023-09-19T14:16:50;18.70;99.90
44447;DHT22;30152;52.066;5.358;2023-09-19T14:31:29;18.10;99.90
44447;DHT22;30152;52.066;5.358;2023-09-19T14:33:55;18.70;99.90
44447;DHT22;30152;52.066;5.358;2023-09-19T14:36:25;18.70;99.90
44447;DHT22;30152;52.066;5.358;2023-09-19T14:38:56;18.10;99.90
44447;DHT22;30152;52.066;5.358;2023-09-19T14:43:54;18.60;99.90
44447;DHT22;30152;52.066;5.358;2023-09-19T14:46:23;18.40;99.90
44447;DHT22;30152;52.066;5.358;2023-09-19T14:48:51;18.50;99.90
44447;DHT22;30152;52.066;5.358;2023-09-19T14:51:16;18.30;99.90
44447;DHT22;30152;52.066;5.358;2023-09-19T14:53:44;18.50;99.90
44447;DHT22;30152;52.066;5.358;2023-09-19T14:58:37;18.90;99.90
44447;DHT22;30152;52.066;5.358;2023-09-19T15:01:08;18.40;99.90
44447;DHT22;30152;52.066;5.358;2023-09-19T15:06:06;18.40;99.90
44447;DHT22;30152;52.066;5.358;2023-09-19T15:08:32;19.20;99.90
44447;DHT22;30152;52.066;5.358;2023-09-19T15:11:00;18.00;99.90
44447;DHT22;30152;52.066;5.358;2023-09-19T15:16:02;18.30;99.90
44447;DHT22;30152;52.066;5.358;2023-09-19T15:18:28;18.50;99.90
44447;DHT22;30152;52.066;5.358;2023-09-19T15:21:02;18.60;99.90
44447;DHT22;30152;52.066;5.358;2023-09-19T15:23:30;18.30;99.90
44447;DHT22;30152;52.066;5.358;2023-09-19T15:25:58;18.50;99.90
44447;DHT22;30152;52.066;5.358;2023-09-19T15:30:50;17.90;99.90
44447;DHT22;30152;52.066;5.358;2023-09-19T15:33:15;18.50;99.90
44447;DHT22;30152;52.066;5.358;2023-09-19T15:38:07;18.30;99.90
44447;DHT22;30152;52.066;5.358;2023-09-19T15:40:33;18.10;99.90
44447;DHT22;30152;52.066;5.358;2023-09-19T15:42:59;18.40;99.90
44447;DHT22;30152;52.066;5.358;2023-09-19T15:45:25;17.80;99.90
44447;DHT22;30152;52.066;5.358;2023-09-19T15:47:51;17.80;99.90
44447;DHT22;30152;52.066;5.358;2023-09-19T15:57:38;18.20;99.90
44447;DHT22;30152;52.066;5.358;2023-09-19T16:00:05;18.10;99.90
44447;DHT22;30152;52.066;5.358;2023-09-19T16:02:36;18.10;99.90
44447;DHT22;30152;52.066;5.358;2023-09-19T16:07:32;18.30;99.90
44447;DHT22;30152;52.066;5.358;2023-09-19T16:10:02;17.80;99.90
44447;DHT22;30152;52.066;5.358;2023-09-19T16:14:56;18.70;99.90
44447;DHT22;30152;52.066;5.358;2023-09-19T16:17:21;18.40;99.90
44447;DHT22;30152;52.066;5.358;2023-09-19T16:19:47;17.90;99.90
44447;DHT22;30152;52.066;5.358;2023-09-19T16:22:12;18.40;99.90
44447;DHT22;30152;52.066;5.358;2023-09-19T16:24:50;18.60;99.90
44447;DHT22;30152;52.066;5.358;2023-09-19T16:27:16;17.90;99.90
44447;DHT22;30152;52.066;5.358;2023-09-19T16:29:44;18.40;99.90
44447;DHT22;30152;52.066;5.358;2023-09-19T16:37:03;18.60;99.90
44447;DHT22;30152;52.066;5.358;2023-09-19T16:41:54;18.70;99.90
44447;DHT22;30152;52.066;5.358;2023-09-19T16:46:46;18.50;99.90
44447;DHT22;30152;52.066;5.358;2023-09-19T16:56:29;17.30;99.90
44447;DHT22;30152;52.066;5.358;2023-09-19T17:01:26;17.80;99.90
44447;DHT22;30152;52.066;5.358;2023-09-19T17:03:52;18.10;99.90
44447;DHT22;30152;52.066;5.358;2023-09-19T17:11:14;18.00;99.90
44447;DHT22;30152;52.066;5.358;2023-09-19T17:13:43;17.60;99.90
44447;DHT22;30152;52.066;5.358;2023-09-19T17:16:11;17.70;99.90
44447;DHT22;30152;52.066;5.358;2023-09-19T17:18:37;18.20;99.90
44447;DHT22;30152;52.066;5.358;2023-09-19T17:21:04;17.90;99.90
44447;DHT22;30152;52.066;5.358;2023-09-19T17:23:36;17.70;99.90
44447;DHT22;30152;52.066;5.358;2023-09-19T17:26:04;17.90;99.90
44447;DHT22;30152;52.066;5.358;2023-09-19T17:28:35;18.10;99.90
44447;DHT22;30152;52.066;5.358;2023-09-19T17:31:01;18.30;99.90
44447;DHT22;30152;52.066;5.358;2023-09-19T17:36:11;17.30;99.90
44447;DHT22;30152;52.066;5.358;2023-09-19T17:38:43;17.30;99.90
44447;DHT22;30152;52.066;5.358;2023-09-19T17:43:36;17.40;99.90
44447;DHT22;30152;52.066;5.358;2023-09-19T17:46:07;17.40;99.90
44447;DHT22;30152;52.066;5.358;2023-09-19T17:48:52;18.40;99.90
44447;DHT22;30152;52.066;5.358;2023-09-19T17:51:18;17.30;99.90
44447;DHT22;30152;52.066;5.358;2023-09-19T17:53:45;17.20;99.90
44447;DHT22;30152;52.066;5.358;2023-09-19T17:56:12;17.50;99.90
44447;DHT22;30152;52.066;5.358;2023-09-19T17:58:40;17.00;99.90
44447;DHT22;30152;52.066;5.358;2023-09-19T18:01:11;16.90;99.90
44447;DHT22;30152;52.066;5.358;2023-09-19T18:08:33;17.10;99.90
44447;DHT22;30152;52.066;5.358;2023-09-19T18:11:00;16.90;99.90
44447;DHT22;30152;52.066;5.358;2023-09-19T18:13:26;16.80;99.90
44447;DHT22;30152;52.066;5.358;2023-09-19T18:20:45;16.60;99.90
44447;DHT22;30152;52.066;5.358;2023-09-19T18:28:03;15.90;99.90
44447;DHT22;30152;52.066;5.358;2023-09-19T18:37:55;16.10;99.90
44447;DHT22;30152;52.066;5.358;2023-09-19T18:40:21;16.00;99.90
44447;DHT22;30152;52.066;5.358;2023-09-19T18:42:47;16.00;99.90
44447;DHT22;30152;52.066;5.358;2023-09-19T18:45:13;16.50;99.90
44447;DHT22;30152;52.066;5.358;2023-09-19T18:47:39;15.80;99.90
44447;DHT22;30152;52.066;5.358;2023-09-19T18:50:06;16.30;99.90
44447;DHT22;30152;52.066;5.358;2023-09-19T18:52:36;16.00;99.90
44447;DHT22;30152;52.066;5.358;2023-09-19T18:55:07;16.20;99.90
44447;DHT22;30152;52.066;5.358;2023-09-19T18:57:37;16.40;99.90
44447;DHT22;30152;52.066;5.358;2023-09-19T19:00:04;16.00;99.90
44447;DHT22;30152;52.066;5.358;2023-09-19T19:02:31;16.50;99.90
44447;DHT22;30152;52.066;5.358;2023-09-19T19:09:49;16.00;99.90
44447;DHT22;30152;52.066;5.358;2023-09-19T19:14:41;16.30;99.90
44447;DHT22;30152;52.066;5.358;2023-09-19T19:17:10;16.20;99.90
44447;DHT22;30152;52.066;5.358;2023-09-19T19:19:44;16.50;99.90
44447;DHT22;30152;52.066;5.358;2023-09-19T19:22:10;16.00;99.90
44447;DHT22;30152;52.066;5.358;2023-09-19T19:27:02;16.20;99.90
44447;DHT22;30152;52.066;5.358;2023-09-19T19:31:54;16.00;99.90
44447;DHT22;30152;52.066;5.358;2023-09-19T19:34:20;16.40;99.90
44447;DHT22;30152;52.066;5.358;2023-09-19T19:36:46;17.20;99.90
44447;DHT22;30152;52.066;5.358;2023-09-19T20:06:02;16.10;99.90
44447;DHT22;30152;52.066;5.358;2023-09-19T20:11:07;16.60;99.90
44447;DHT22;30152;52.066;5.358;2023-09-19T20:13:33;16.20;99.90
44447;DHT22;30152;52.066;5.358;2023-09-19T20:15:59;16.60;99.90
44447;DHT22;30152;52.066;5.358;2023-09-19T20:18:26;16.70;99.90
44447;DHT22;30152;52.066;5.358;2023-09-19T20:20:51;16.60;99.90
44447;DHT22;30152;52.066;5.358;2023-09-19T20:23:20;16.90;99.90
44447;DHT22;30152;52.066;5.358;2023-09-19T20:25:47;16.30;99.90
44447;DHT22;30152;52.066;5.358;2023-09-19T20:28:13;16.70;99.90
44447;DHT22;30152;52.066;5.358;2023-09-19T20:33:08;17.20;99.90
44447;DHT22;30152;52.066;5.358;2023-09-19T20:35:37;17.00;99.90
44447;DHT22;30152;52.066;5.358;2023-09-19T20:38:03;16.80;99.90
44447;DHT22;30152;52.066;5.358;2023-09-19T20:47:50;16.70;99.90
44447;DHT22;30152;52.066;5.358;2023-09-19T20:52:43;16.10;99.90
44447;DHT22;30152;52.066;5.358;2023-09-19T20:55:09;16.30;99.90
44447;DHT22;30152;52.066;5.358;2023-09-19T21:02:32;16.70;99.90
44447;DHT22;30152;52.066;5.358;2023-09-19T21:04:58;16.40;99.90
44447;DHT22;30152;52.066;5.358;2023-09-19T21:07:25;16.50;99.90
44447;DHT22;30152;52.066;5.358;2023-09-19T21:09:54;16.40;99.90
